createdAt,value
2017-07-02T00:00:24.293Z,1014.92
2017-07-02T00:00:49.870Z,1014.9
2017-07-02T00:01:15.438Z,1014.9
2017-07-02T00:01:41.022Z,1014.88
2017-07-02T00:02:06.570Z,1014.89
2017-07-02T00:02:32.150Z,1014.89
2017-07-02T00:02:57.825Z,1014.88
2017-07-02T00:03:23.406Z,1014.85
2017-07-02T00:03:48.957Z,1014.87
2017-07-02T00:04:14.555Z,1014.91
2017-07-02T00:04:40.119Z,1014.9
2017-07-02T00:05:05.685Z,1014.89
2017-07-02T00:05:31.228Z,1014.9
2017-07-02T00:05:56.848Z,1014.95
2017-07-02T00:06:22.419Z,1014.9
2017-07-02T00:06:47.988Z,1014.89
2017-07-02T00:07:13.526Z,1014.91
2017-07-02T00:07:39.082Z,1014.93
2017-07-02T00:08:04.658Z,1014.91
2017-07-02T00:08:30.240Z,1014.91
2017-07-02T00:08:55.789Z,1014.89
2017-07-02T00:09:21.423Z,1014.89
2017-07-02T00:09:47.051Z,1014.9
2017-07-02T00:10:12.607Z,1014.9
2017-07-02T00:10:38.157Z,1014.93
2017-07-02T00:11:03.723Z,1014.93
2017-07-02T00:11:29.288Z,1014.95
2017-07-02T00:11:54.851Z,1014.94
2017-07-02T00:12:20.472Z,1014.9
2017-07-02T00:12:46.041Z,1014.94
2017-07-02T00:13:11.594Z,1014.89
2017-07-02T00:13:37.200Z,1014.91
2017-07-02T00:14:02.734Z,1014.92
2017-07-02T00:14:28.321Z,1014.9
2017-07-02T00:14:53.887Z,1014.9
2017-07-02T00:15:19.449Z,1014.92
2017-07-02T00:15:44.989Z,1014.91
2017-07-02T00:16:10.568Z,1014.93
2017-07-02T00:16:36.134Z,1014.93
2017-07-02T00:17:01.706Z,1014.9
2017-07-02T00:17:27.249Z,1014.94
2017-07-02T00:17:52.881Z,1014.93
2017-07-02T00:18:18.450Z,1014.92
2017-07-02T00:18:44.013Z,1014.89
2017-07-02T00:19:09.586Z,1014.93
2017-07-02T00:19:35.177Z,1014.92
2017-07-02T00:20:00.741Z,1014.9
2017-07-02T00:20:26.349Z,1014.9
2017-07-02T00:20:51.921Z,1014.9
2017-07-02T00:21:17.492Z,1014.86
2017-07-02T00:21:43.030Z,1014.92
2017-07-02T00:22:08.587Z,1014.89
2017-07-02T00:22:34.150Z,1014.95
2017-07-02T00:22:59.743Z,1014.95
2017-07-02T00:23:25.301Z,1014.94
2017-07-02T00:23:50.939Z,1014.96
2017-07-02T00:24:16.588Z,1014.97
2017-07-02T00:24:42.142Z,1014.95
2017-07-02T00:25:07.687Z,1014.97
2017-07-02T00:25:33.248Z,1014.97
2017-07-02T00:25:58.811Z,1014.97
2017-07-02T00:26:24.371Z,1014.96
2017-07-02T00:26:49.996Z,1014.94
2017-07-02T00:27:15.556Z,1014.93
2017-07-02T00:27:41.111Z,1014.97
2017-07-02T00:28:06.738Z,1014.95
2017-07-02T00:28:32.293Z,1014.99
2017-07-02T00:28:57.854Z,1014.96
2017-07-02T00:29:23.410Z,1014.97
2017-07-02T00:29:48.963Z,1014.97
2017-07-02T00:30:14.496Z,1014.98
2017-07-02T00:30:40.051Z,1014.97
2017-07-02T00:31:05.653Z,1014.95
2017-07-02T00:31:31.208Z,1014.98
2017-07-02T00:32:45.497Z,1014.97
2017-07-02T00:33:11.160Z,1014.97
2017-07-02T00:33:36.810Z,1014.97
2017-07-02T00:34:02.384Z,1014.96
2017-07-02T00:34:27.951Z,1014.99
2017-07-02T00:34:53.599Z,1014.97
2017-07-02T00:35:19.209Z,1014.97
2017-07-02T00:35:44.798Z,1014.98
2017-07-02T00:36:10.376Z,1014.98
2017-07-02T00:36:35.921Z,1014.98
2017-07-02T00:37:01.472Z,1014.97
2017-07-02T00:37:27.052Z,1014.97
2017-07-02T00:37:52.720Z,1014.94
2017-07-02T00:38:18.282Z,1014.95
2017-07-02T00:38:43.854Z,1014.94
2017-07-02T00:39:09.408Z,1014.98
2017-07-02T00:39:34.968Z,1014.97
2017-07-02T00:40:00.520Z,1014.98
2017-07-02T00:40:26.117Z,1014.95
2017-07-02T00:40:51.669Z,1014.9
2017-07-02T00:41:17.223Z,1014.93
2017-07-02T00:41:42.801Z,1014.93
2017-07-02T00:42:08.369Z,1014.95
2017-07-02T00:42:33.931Z,1014.92
2017-07-02T00:42:59.557Z,1014.94
2017-07-02T00:43:25.106Z,1014.91
2017-07-02T00:43:50.676Z,1014.94
2017-07-02T00:44:16.347Z,1014.92
2017-07-02T00:44:41.923Z,1014.92
2017-07-02T00:45:07.486Z,1014.98
2017-07-02T00:45:33.049Z,1014.95
2017-07-02T00:45:58.605Z,1014.93
2017-07-02T00:46:24.176Z,1014.99
2017-07-02T00:46:49.777Z,1014.97
2017-07-02T00:47:15.345Z,1014.99
2017-07-02T00:47:40.902Z,1014.96
2017-07-02T00:48:06.470Z,1014.99
2017-07-02T00:48:32.058Z,1014.95
2017-07-02T00:48:57.599Z,1015.01
2017-07-02T00:49:23.258Z,1014.95
2017-07-02T00:49:48.810Z,1014.95
2017-07-02T00:50:14.366Z,1014.97
2017-07-02T00:50:39.988Z,1014.94
2017-07-02T00:51:05.629Z,1014.91
2017-07-02T00:51:31.184Z,1014.94
2017-07-02T00:51:56.748Z,1014.97
2017-07-02T00:52:22.290Z,1014.99
2017-07-02T00:52:47.869Z,1014.96
2017-07-02T00:53:13.427Z,1014.99
2017-07-02T00:53:39.087Z,1014.97
2017-07-02T00:54:04.645Z,1014.94
2017-07-02T00:54:30.200Z,1014.98
2017-07-02T00:54:55.760Z,1014.97
2017-07-02T00:55:21.299Z,1014.96
2017-07-02T00:55:46.849Z,1014.93
2017-07-02T00:56:12.427Z,1015
2017-07-02T00:56:37.989Z,1014.97
2017-07-02T00:57:03.579Z,1014.97
2017-07-02T00:57:29.240Z,1014.92
2017-07-02T00:57:54.809Z,1014.94
2017-07-02T00:58:20.354Z,1014.94
2017-07-02T00:58:45.923Z,1014.94
2017-07-02T00:59:11.493Z,1014.97
2017-07-02T00:59:37.089Z,1014.98
2017-07-02T01:00:02.672Z,1014.97
2017-07-02T01:00:28.223Z,1014.98
2017-07-02T01:00:53.774Z,1014.93
2017-07-02T01:01:19.460Z,1014.97
2017-07-02T01:01:45.010Z,1014.96
2017-07-02T01:02:10.578Z,1014.99
2017-07-02T01:02:36.210Z,1014.97
2017-07-02T01:03:01.763Z,1014.98
2017-07-02T01:03:27.306Z,1014.98
2017-07-02T01:03:52.887Z,1014.96
2017-07-02T01:04:18.453Z,1014.97
2017-07-02T01:04:44.015Z,1014.98
2017-07-02T01:05:09.571Z,1014.96
2017-07-02T01:05:35.138Z,1014.93
2017-07-02T01:06:00.681Z,1014.94
2017-07-02T01:06:26.256Z,1014.94
2017-07-02T01:06:51.841Z,1014.94
2017-07-02T01:07:17.438Z,1014.95
2017-07-02T01:07:42.996Z,1014.96
2017-07-02T01:08:08.581Z,1014.96
2017-07-02T01:08:34.142Z,1014.92
2017-07-02T01:08:59.821Z,1014.94
2017-07-02T01:09:25.455Z,1014.97
2017-07-02T01:09:51.028Z,1014.96
2017-07-02T01:10:16.592Z,1014.94
2017-07-02T01:10:42.203Z,1014.96
2017-07-02T01:11:07.769Z,1014.93
2017-07-02T01:11:33.340Z,1014.96
2017-07-02T01:11:58.890Z,1014.96
2017-07-02T01:12:24.469Z,1014.92
2017-07-02T01:12:50.017Z,1014.93
2017-07-02T01:13:15.568Z,1014.97
2017-07-02T01:13:41.128Z,1014.92
2017-07-02T01:14:06.704Z,1014.96
2017-07-02T01:14:32.360Z,1014.98
2017-07-02T01:14:57.882Z,1014.96
2017-07-02T01:15:23.441Z,1014.98
2017-07-02T01:15:49.006Z,1015.02
2017-07-02T01:16:14.555Z,1014.96
2017-07-02T01:16:40.123Z,1014.95
2017-07-02T01:17:05.661Z,1014.97
2017-07-02T01:17:31.237Z,1014.99
2017-07-02T01:17:56.915Z,1014.98
2017-07-02T01:18:22.578Z,1014.97
2017-07-02T01:18:48.155Z,1014.94
2017-07-02T01:19:13.739Z,1014.93
2017-07-02T01:19:39.301Z,1014.95
2017-07-02T01:20:04.867Z,1014.93
2017-07-02T01:20:30.432Z,1014.92
2017-07-02T01:20:56.033Z,1014.95
2017-07-02T01:21:21.592Z,1014.94
2017-07-02T01:21:47.146Z,1014.96
2017-07-02T01:22:12.716Z,1014.92
2017-07-02T01:22:38.313Z,1014.92
2017-07-02T01:23:03.867Z,1014.93
2017-07-02T01:23:29.457Z,1014.97
2017-07-02T01:23:55.100Z,1014.91
2017-07-02T01:24:20.674Z,1014.94
2017-07-02T01:24:46.226Z,1014.93
2017-07-02T01:25:11.798Z,1014.94
2017-07-02T01:25:37.362Z,1014.96
2017-07-02T01:26:02.917Z,1014.92
2017-07-02T01:26:28.581Z,1014.94
2017-07-02T01:26:54.129Z,1014.96
2017-07-02T01:27:19.686Z,1014.97
2017-07-02T01:27:45.265Z,1014.92
2017-07-02T01:28:10.863Z,1014.91
2017-07-02T01:28:36.458Z,1014.93
2017-07-02T01:29:02.080Z,1014.89
2017-07-02T01:29:27.625Z,1014.91
2017-07-02T01:29:53.170Z,1014.91
2017-07-02T01:30:18.808Z,1014.96
2017-07-02T01:30:44.352Z,1014.91
2017-07-02T01:31:09.917Z,1014.95
2017-07-02T01:31:35.469Z,1014.92
2017-07-02T01:32:01.032Z,1014.9
2017-07-02T01:32:26.577Z,1014.95
2017-07-02T01:32:52.147Z,1014.93
2017-07-02T01:33:17.697Z,1014.92
2017-07-02T01:33:43.264Z,1014.93
2017-07-02T01:34:08.857Z,1014.96
2017-07-02T01:34:34.441Z,1014.94
2017-07-02T01:35:00.023Z,1014.96
2017-07-02T01:35:25.689Z,1014.91
2017-07-02T01:35:51.239Z,1014.9
2017-07-02T01:36:16.811Z,1014.9
2017-07-02T01:36:42.386Z,1014.88
2017-07-02T01:37:07.971Z,1014.91
2017-07-02T01:37:33.522Z,1014.9
2017-07-02T01:37:59.086Z,1014.92
2017-07-02T01:38:24.654Z,1014.9
2017-07-02T01:38:50.224Z,1014.91
2017-07-02T01:39:15.794Z,1014.87
2017-07-02T01:39:41.398Z,1014.88
2017-07-02T01:40:06.955Z,1014.89
2017-07-02T01:40:32.505Z,1014.87
2017-07-02T01:40:58.067Z,1014.84
2017-07-02T01:41:23.630Z,1014.86
2017-07-02T01:41:49.201Z,1014.87
2017-07-02T01:42:14.761Z,1014.84
2017-07-02T01:42:40.350Z,1014.91
2017-07-02T01:43:05.916Z,1014.85
2017-07-02T01:43:31.463Z,1014.87
2017-07-02T01:43:57.017Z,1014.83
2017-07-02T01:44:22.578Z,1014.84
2017-07-02T01:44:48.154Z,1014.88
2017-07-02T01:45:13.726Z,1014.83
2017-07-02T01:45:39.297Z,1014.92
2017-07-02T01:46:04.850Z,1014.87
2017-07-02T01:46:30.405Z,1014.86
2017-07-02T01:46:55.990Z,1014.88
2017-07-02T01:47:21.548Z,1014.87
2017-07-02T01:47:47.112Z,1014.84
2017-07-02T01:48:12.750Z,1014.88
2017-07-02T01:48:38.311Z,1014.88
2017-07-02T01:49:03.899Z,1014.89
2017-07-02T01:49:29.456Z,1014.85
2017-07-02T01:49:55.022Z,1014.84
2017-07-02T01:50:20.646Z,1014.88
2017-07-02T01:50:46.272Z,1014.91
2017-07-02T01:51:11.847Z,1014.9
2017-07-02T01:51:37.422Z,1014.91
2017-07-02T01:52:03.042Z,1014.91
2017-07-02T01:52:28.728Z,1014.87
2017-07-02T01:52:54.299Z,1014.9
2017-07-02T01:53:19.846Z,1014.91
2017-07-02T01:53:45.471Z,1014.88
2017-07-02T01:54:11.035Z,1014.9
2017-07-02T01:54:36.602Z,1014.85
2017-07-02T01:55:02.180Z,1014.9
2017-07-02T01:55:27.754Z,1014.89
2017-07-02T01:55:53.316Z,1014.85
2017-07-02T01:56:18.891Z,1014.85
2017-07-02T01:56:44.441Z,1014.89
2017-07-02T01:57:09.994Z,1014.9
2017-07-02T01:57:35.570Z,1014.87
2017-07-02T01:58:01.151Z,1014.88
2017-07-02T01:58:26.730Z,1014.88
2017-07-02T01:58:52.326Z,1014.88
2017-07-02T01:59:18.031Z,1014.86
2017-07-02T01:59:43.599Z,1014.83
2017-07-02T02:00:09.149Z,1014.85
2017-07-02T02:00:34.811Z,1014.82
2017-07-02T02:01:00.350Z,1014.83
2017-07-02T02:01:25.915Z,1014.79
2017-07-02T02:01:51.479Z,1014.84
2017-07-02T02:02:17.037Z,1014.84
2017-07-02T02:02:42.603Z,1014.84
2017-07-02T02:03:08.206Z,1014.85
2017-07-02T02:03:33.770Z,1014.86
2017-07-02T02:03:59.385Z,1014.88
2017-07-02T02:04:24.970Z,1014.83
2017-07-02T02:04:50.520Z,1014.86
2017-07-02T02:05:16.066Z,1014.86
2017-07-02T02:05:41.713Z,1014.83
2017-07-02T02:06:07.272Z,1014.83
2017-07-02T02:06:32.866Z,1014.81
2017-07-02T02:06:58.474Z,1014.86
2017-07-02T02:07:24.151Z,1014.88
2017-07-02T02:07:49.745Z,1014.88
2017-07-02T02:08:15.318Z,1014.85
2017-07-02T02:08:40.887Z,1014.84
2017-07-02T02:09:06.455Z,1014.84
2017-07-02T02:09:32.011Z,1014.85
2017-07-02T02:09:57.591Z,1014.84
2017-07-02T02:10:23.140Z,1014.84
2017-07-02T02:10:48.709Z,1014.83
2017-07-02T02:11:14.271Z,1014.82
2017-07-02T02:11:39.817Z,1014.79
2017-07-02T02:12:05.398Z,1014.77
2017-07-02T02:12:30.962Z,1014.79
2017-07-02T02:12:56.580Z,1014.78
2017-07-02T02:13:22.140Z,1014.83
2017-07-02T02:13:47.699Z,1014.8
2017-07-02T02:14:13.247Z,1014.82
2017-07-02T02:14:38.812Z,1014.79
2017-07-02T02:15:04.421Z,1014.83
2017-07-02T02:15:29.959Z,1014.81
2017-07-02T02:15:55.537Z,1014.8
2017-07-02T02:16:21.107Z,1014.84
2017-07-02T02:16:46.663Z,1014.84
2017-07-02T02:17:12.212Z,1014.81
2017-07-02T02:17:37.816Z,1014.79
2017-07-02T02:18:03.381Z,1014.83
2017-07-02T02:18:28.962Z,1014.82
2017-07-02T02:18:54.634Z,1014.84
2017-07-02T02:19:20.209Z,1014.8
2017-07-02T02:19:45.761Z,1014.79
2017-07-02T02:20:11.325Z,1014.74
2017-07-02T02:20:36.908Z,1014.76
2017-07-02T02:21:02.466Z,1014.74
2017-07-02T02:21:28.110Z,1014.8
2017-07-02T02:21:53.663Z,1014.76
2017-07-02T02:22:19.222Z,1014.76
2017-07-02T02:22:44.775Z,1014.77
2017-07-02T02:23:10.335Z,1014.8
2017-07-02T02:23:35.891Z,1014.79
2017-07-02T02:24:01.457Z,1014.76
2017-07-02T02:24:27.020Z,1014.8
2017-07-02T02:24:52.578Z,1014.75
2017-07-02T02:25:18.136Z,1014.77
2017-07-02T02:25:43.687Z,1014.77
2017-07-02T02:26:09.339Z,1014.79
2017-07-02T02:26:35.003Z,1014.78
2017-07-02T02:27:00.621Z,1014.78
2017-07-02T02:27:26.194Z,1014.76
2017-07-02T02:27:51.814Z,1014.78
2017-07-02T02:28:17.364Z,1014.78
2017-07-02T02:28:42.904Z,1014.77
2017-07-02T02:29:08.453Z,1014.76
2017-07-02T02:29:34.032Z,1014.76
2017-07-02T02:29:59.592Z,1014.78
2017-07-02T02:30:25.162Z,1014.72
2017-07-02T02:30:50.719Z,1014.72
2017-07-02T02:31:16.278Z,1014.73
2017-07-02T02:31:41.890Z,1014.74
2017-07-02T02:32:07.450Z,1014.74
2017-07-02T02:32:33.026Z,1014.75
2017-07-02T02:32:58.614Z,1014.76
2017-07-02T02:33:24.188Z,1014.76
2017-07-02T02:33:49.753Z,1014.74
2017-07-02T02:34:15.306Z,1014.75
2017-07-02T02:34:40.969Z,1014.72
2017-07-02T02:35:06.525Z,1014.7
2017-07-02T02:35:32.085Z,1014.73
2017-07-02T02:35:57.649Z,1014.75
2017-07-02T02:36:23.232Z,1014.74
2017-07-02T02:36:48.786Z,1014.73
2017-07-02T02:37:14.425Z,1014.73
2017-07-02T02:37:39.975Z,1014.73
2017-07-02T02:38:05.537Z,1014.77
2017-07-02T02:38:31.093Z,1014.75
2017-07-02T02:38:56.675Z,1014.71
2017-07-02T02:39:22.245Z,1014.72
2017-07-02T02:39:47.861Z,1014.74
2017-07-02T02:40:13.440Z,1014.73
2017-07-02T02:40:38.993Z,1014.72
2017-07-02T02:41:04.629Z,1014.73
2017-07-02T02:41:30.195Z,1014.73
2017-07-02T02:41:55.740Z,1014.75
2017-07-02T02:42:21.340Z,1014.77
2017-07-02T02:42:46.962Z,1014.73
2017-07-02T02:43:12.516Z,1014.72
2017-07-02T02:43:38.098Z,1014.76
2017-07-02T02:44:03.658Z,1014.73
2017-07-02T02:45:23.869Z,1014.79
2017-07-02T02:45:49.445Z,1014.73
2017-07-02T02:46:15.003Z,1014.77
2017-07-02T02:46:40.572Z,1014.77
2017-07-02T02:47:06.155Z,1014.79
2017-07-02T02:47:31.718Z,1014.74
2017-07-02T02:47:57.288Z,1014.75
2017-07-02T02:48:22.916Z,1014.76
2017-07-02T02:48:48.470Z,1014.81
2017-07-02T02:49:14.049Z,1014.75
2017-07-02T02:49:39.677Z,1014.74
2017-07-02T02:50:05.240Z,1014.72
2017-07-02T02:50:30.792Z,1014.74
2017-07-02T02:50:56.445Z,1014.73
2017-07-02T02:51:22.011Z,1014.71
2017-07-02T02:51:47.612Z,1014.73
2017-07-02T02:52:13.254Z,1014.71
2017-07-02T02:52:38.813Z,1014.75
2017-07-02T02:53:04.380Z,1014.76
2017-07-02T02:53:29.931Z,1014.79
2017-07-02T02:53:55.489Z,1014.76
2017-07-02T02:54:21.062Z,1014.74
2017-07-02T02:54:46.608Z,1014.76
2017-07-02T02:55:12.183Z,1014.77
2017-07-02T02:55:37.757Z,1014.72
2017-07-02T02:56:03.344Z,1014.74
2017-07-02T02:56:28.975Z,1014.77
2017-07-02T02:56:54.536Z,1014.79
2017-07-02T02:57:20.120Z,1014.8
2017-07-02T02:57:45.680Z,1014.78
2017-07-02T02:58:11.230Z,1014.82
2017-07-02T02:58:36.779Z,1014.8
2017-07-02T02:59:02.340Z,1014.82
2017-07-02T02:59:27.906Z,1014.85
2017-07-02T02:59:53.577Z,1014.82
2017-07-02T03:00:19.132Z,1014.87
2017-07-02T03:00:44.689Z,1014.83
2017-07-02T03:01:10.268Z,1014.88
2017-07-02T03:01:35.845Z,1014.84
2017-07-02T03:02:01.406Z,1014.84
2017-07-02T03:02:26.977Z,1014.84
2017-07-02T03:02:52.545Z,1014.8
2017-07-02T03:03:18.151Z,1014.86
2017-07-02T03:03:43.714Z,1014.84
2017-07-02T03:04:09.395Z,1014.86
2017-07-02T03:04:34.959Z,1014.85
2017-07-02T03:05:00.513Z,1014.83
2017-07-02T03:05:26.088Z,1014.85
2017-07-02T03:05:51.640Z,1014.83
2017-07-02T03:06:17.211Z,1014.81
2017-07-02T03:06:42.782Z,1014.85
2017-07-02T03:07:08.331Z,1014.84
2017-07-02T03:07:33.884Z,1014.83
2017-07-02T03:07:59.569Z,1014.82
2017-07-02T03:08:25.161Z,1014.82
2017-07-02T03:08:50.720Z,1014.8
2017-07-02T03:09:16.272Z,1014.84
2017-07-02T03:09:41.827Z,1014.85
2017-07-02T03:10:07.393Z,1014.85
2017-07-02T03:10:33.005Z,1014.87
2017-07-02T03:10:58.572Z,1014.86
2017-07-02T03:11:24.129Z,1014.87
2017-07-02T03:11:49.756Z,1014.9
2017-07-02T03:12:15.330Z,1014.88
2017-07-02T03:12:40.863Z,1014.85
2017-07-02T03:13:06.407Z,1014.9
2017-07-02T03:13:32.027Z,1014.9
2017-07-02T03:13:57.574Z,1014.87
2017-07-02T03:14:23.159Z,1014.9
2017-07-02T03:14:48.747Z,1014.88
2017-07-02T03:15:14.325Z,1014.87
2017-07-02T03:15:39.923Z,1014.89
2017-07-02T03:16:05.542Z,1014.86
2017-07-02T03:16:31.146Z,1014.87
2017-07-02T03:16:56.735Z,1014.89
2017-07-02T03:17:22.268Z,1014.85
2017-07-02T03:17:47.831Z,1014.84
2017-07-02T03:18:13.385Z,1014.84
2017-07-02T03:18:38.928Z,1014.88
2017-07-02T03:19:04.494Z,1014.88
2017-07-02T03:19:30.124Z,1014.87
2017-07-02T03:19:55.688Z,1014.85
2017-07-02T03:20:21.261Z,1014.84
2017-07-02T03:20:46.822Z,1014.89
2017-07-02T03:21:12.494Z,1014.85
2017-07-02T03:21:38.046Z,1014.85
2017-07-02T03:22:03.613Z,1014.84
2017-07-02T03:22:29.208Z,1014.85
2017-07-02T03:22:54.758Z,1014.82
2017-07-02T03:23:20.321Z,1014.83
2017-07-02T03:23:45.910Z,1014.8
2017-07-02T03:24:11.476Z,1014.8
2017-07-02T03:24:37.028Z,1014.8
2017-07-02T03:25:02.693Z,1014.83
2017-07-02T03:25:28.269Z,1014.86
2017-07-02T03:25:53.835Z,1014.83
2017-07-02T03:26:19.400Z,1014.87
2017-07-02T03:26:45.028Z,1014.85
2017-07-02T03:27:10.619Z,1014.88
2017-07-02T03:27:36.178Z,1014.86
2017-07-02T03:28:01.784Z,1014.86
2017-07-02T03:28:27.337Z,1014.83
2017-07-02T03:28:52.889Z,1014.85
2017-07-02T03:29:18.442Z,1014.84
2017-07-02T03:29:44.047Z,1014.85
2017-07-02T03:30:09.620Z,1014.85
2017-07-02T03:30:35.192Z,1014.87
2017-07-02T03:31:00.766Z,1014.86
2017-07-02T03:31:26.318Z,1014.84
2017-07-02T03:31:51.868Z,1014.9
2017-07-02T03:32:17.436Z,1014.85
2017-07-02T03:32:43.080Z,1014.82
2017-07-02T03:33:08.636Z,1014.89
2017-07-02T03:33:34.198Z,1014.9
2017-07-02T03:33:59.773Z,1014.87
2017-07-02T03:34:25.383Z,1014.86
2017-07-02T03:34:50.947Z,1014.9
2017-07-02T03:35:16.512Z,1014.85
2017-07-02T03:35:42.168Z,1014.84
2017-07-02T03:36:07.760Z,1014.84
2017-07-02T03:36:33.328Z,1014.86
2017-07-02T03:36:58.893Z,1014.85
2017-07-02T03:37:24.439Z,1014.85
2017-07-02T03:37:49.979Z,1014.88
2017-07-02T03:38:15.522Z,1014.88
2017-07-02T03:38:41.061Z,1014.86
2017-07-02T03:39:06.631Z,1014.84
2017-07-02T03:39:32.225Z,1014.83
2017-07-02T03:39:57.790Z,1014.81
2017-07-02T03:40:23.343Z,1014.87
2017-07-02T03:40:48.961Z,1014.84
2017-07-02T03:41:14.514Z,1014.86
2017-07-02T03:41:40.101Z,1014.89
2017-07-02T03:42:05.789Z,1014.9
2017-07-02T03:42:31.414Z,1014.92
2017-07-02T03:42:56.978Z,1014.91
2017-07-02T03:43:22.558Z,1014.96
2017-07-02T03:43:48.193Z,1015.01
2017-07-02T03:44:13.750Z,1014.96
2017-07-02T03:44:39.367Z,1014.97
2017-07-02T03:45:04.988Z,1014.96
2017-07-02T03:45:30.547Z,1014.99
2017-07-02T03:45:56.101Z,1014.98
2017-07-02T03:46:21.743Z,1014.95
2017-07-02T03:46:47.286Z,1014.95
2017-07-02T03:47:12.846Z,1014.94
2017-07-02T03:47:38.423Z,1014.95
2017-07-02T03:48:03.976Z,1014.98
2017-07-02T03:48:29.533Z,1014.96
2017-07-02T03:48:55.101Z,1014.97
2017-07-02T03:49:20.671Z,1014.97
2017-07-02T03:49:46.278Z,1015.01
2017-07-02T03:50:11.847Z,1015.01
2017-07-02T03:50:37.399Z,1014.97
2017-07-02T03:51:03.017Z,1014.99
2017-07-02T03:51:28.580Z,1014.98
2017-07-02T03:51:54.156Z,1014.95
2017-07-02T03:52:19.722Z,1015
2017-07-02T03:52:45.294Z,1014.98
2017-07-02T03:53:10.865Z,1014.99
2017-07-02T03:53:36.438Z,1015
2017-07-02T03:54:01.986Z,1015.05
2017-07-02T03:54:27.601Z,1015
2017-07-02T03:54:53.176Z,1015.02
2017-07-02T03:55:18.751Z,1015.05
2017-07-02T03:55:44.319Z,1015.01
2017-07-02T03:56:09.888Z,1015.05
2017-07-02T03:56:35.446Z,1014.99
2017-07-02T03:57:01.109Z,1015.03
2017-07-02T03:57:26.693Z,1015.03
2017-07-02T03:57:52.270Z,1014.99
2017-07-02T03:58:17.828Z,1015.03
2017-07-02T03:58:43.389Z,1015.04
2017-07-02T03:59:08.951Z,1015.02
2017-07-02T03:59:34.527Z,1015
2017-07-02T04:00:00.107Z,1015.02
2017-07-02T04:00:25.667Z,1015.05
2017-07-02T04:00:51.298Z,1015.07
2017-07-02T04:01:16.863Z,1015.05
2017-07-02T04:01:42.425Z,1015.09
2017-07-02T04:02:07.985Z,1015.07
2017-07-02T04:02:33.536Z,1015.07
2017-07-02T04:02:59.101Z,1015.07
2017-07-02T04:03:24.749Z,1015.08
2017-07-02T04:03:50.317Z,1015.15
2017-07-02T04:04:15.875Z,1015.11
2017-07-02T04:04:41.441Z,1015.09
2017-07-02T04:05:06.990Z,1015.12
2017-07-02T04:05:32.574Z,1015.15
2017-07-02T04:05:58.285Z,1015.12
2017-07-02T04:06:23.985Z,1015.1
2017-07-02T04:06:49.633Z,1015.12
2017-07-02T04:07:15.204Z,1015.14
2017-07-02T04:07:40.769Z,1015.16
2017-07-02T04:08:06.358Z,1015.15
2017-07-02T04:08:31.914Z,1015.12
2017-07-02T04:08:57.602Z,1015.12
2017-07-02T04:09:23.132Z,1015.15
2017-07-02T04:09:48.701Z,1015.16
2017-07-02T04:10:14.261Z,1015.15
2017-07-02T04:11:23.449Z,1015.16
2017-07-02T04:11:49.035Z,1015.17
2017-07-02T04:12:14.708Z,1015.15
2017-07-02T04:12:40.281Z,1015.19
2017-07-02T04:13:05.822Z,1015.14
2017-07-02T04:13:31.399Z,1015.18
2017-07-02T04:13:56.952Z,1015.17
2017-07-02T04:14:22.518Z,1015.19
2017-07-02T04:14:48.151Z,1015.18
2017-07-02T04:15:13.814Z,1015.19
2017-07-02T04:15:39.381Z,1015.2
2017-07-02T04:16:04.955Z,1015.15
2017-07-02T04:16:30.505Z,1015.18
2017-07-02T04:16:56.056Z,1015.16
2017-07-02T04:17:21.635Z,1015.15
2017-07-02T04:17:47.305Z,1015.2
2017-07-02T04:18:12.868Z,1015.17
2017-07-02T04:18:38.430Z,1015.14
2017-07-02T04:19:03.992Z,1015.12
2017-07-02T04:19:29.549Z,1015.17
2017-07-02T04:19:55.116Z,1015.14
2017-07-02T04:20:20.717Z,1015.13
2017-07-02T04:20:46.293Z,1015.19
2017-07-02T04:21:11.879Z,1015.17
2017-07-02T04:21:37.491Z,1015.17
2017-07-02T04:22:03.067Z,1015.24
2017-07-02T04:22:28.631Z,1015.21
2017-07-02T04:22:54.185Z,1015.24
2017-07-02T04:23:19.789Z,1015.23
2017-07-02T04:23:45.352Z,1015.23
2017-07-02T04:24:10.909Z,1015.26
2017-07-02T04:24:36.495Z,1015.23
2017-07-02T04:25:02.048Z,1015.24
2017-07-02T04:25:27.713Z,1015.26
2017-07-02T04:25:53.260Z,1015.26
2017-07-02T04:26:18.818Z,1015.24
2017-07-02T04:26:44.419Z,1015.26
2017-07-02T04:27:10.042Z,1015.22
2017-07-02T04:27:35.566Z,1015.23
2017-07-02T04:28:01.158Z,1015.24
2017-07-02T04:28:26.717Z,1015.3
2017-07-02T04:28:52.276Z,1015.28
2017-07-02T04:29:17.879Z,1015.28
2017-07-02T04:29:43.457Z,1015.26
2017-07-02T04:30:09.006Z,1015.27
2017-07-02T04:30:34.555Z,1015.21
2017-07-02T04:31:00.129Z,1015.25
2017-07-02T04:31:25.677Z,1015.23
2017-07-02T04:31:51.227Z,1015.27
2017-07-02T04:32:16.904Z,1015.25
2017-07-02T04:32:42.444Z,1015.27
2017-07-02T04:33:07.989Z,1015.28
2017-07-02T04:33:33.593Z,1015.24
2017-07-02T04:33:59.161Z,1015.28
2017-07-02T04:34:24.718Z,1015.21
2017-07-02T04:34:50.284Z,1015.27
2017-07-02T04:35:15.828Z,1015.22
2017-07-02T04:35:41.469Z,1015.27
2017-07-02T04:36:07.022Z,1015.23
2017-07-02T04:36:32.587Z,1015.2
2017-07-02T04:36:58.161Z,1015.29
2017-07-02T04:37:23.803Z,1015.3
2017-07-02T04:37:49.374Z,1015.27
2017-07-02T04:38:14.923Z,1015.28
2017-07-02T04:38:40.610Z,1015.28
2017-07-02T04:39:06.173Z,1015.26
2017-07-02T04:39:31.727Z,1015.26
2017-07-02T04:39:57.296Z,1015.26
2017-07-02T04:40:22.853Z,1015.23
2017-07-02T04:40:48.439Z,1015.24
2017-07-02T04:42:07.841Z,1015.24
2017-07-02T04:42:33.410Z,1015.2
2017-07-02T04:42:59.041Z,1015.23
2017-07-02T04:43:24.682Z,1015.22
2017-07-02T04:43:50.220Z,1015.23
2017-07-02T04:44:15.840Z,1015.21
2017-07-02T04:44:41.406Z,1015.21
2017-07-02T04:45:06.974Z,1015.26
2017-07-02T04:45:32.538Z,1015.19
2017-07-02T04:45:58.108Z,1015.25
2017-07-02T04:46:23.669Z,1015.22
2017-07-02T04:46:49.284Z,1015.25
2017-07-02T04:47:14.841Z,1015.24
2017-07-02T04:47:40.418Z,1015.2
2017-07-02T04:48:05.976Z,1015.21
2017-07-02T04:48:31.583Z,1015.22
2017-07-02T04:48:57.149Z,1015.23
2017-07-02T04:49:22.719Z,1015.24
2017-07-02T04:49:48.370Z,1015.24
2017-07-02T04:50:13.937Z,1015.22
2017-07-02T04:50:39.517Z,1015.24
2017-07-02T04:51:05.085Z,1015.25
2017-07-02T04:51:30.640Z,1015.25
2017-07-02T04:51:56.217Z,1015.25
2017-07-02T04:52:21.772Z,1015.25
2017-07-02T04:52:47.357Z,1015.22
2017-07-02T04:53:12.927Z,1015.2
2017-07-02T04:53:38.482Z,1015.27
2017-07-02T04:54:04.050Z,1015.26
2017-07-02T04:54:29.598Z,1015.23
2017-07-02T04:54:55.153Z,1015.22
2017-07-02T04:55:20.741Z,1015.2
2017-07-02T04:55:46.311Z,1015.18
2017-07-02T04:56:11.871Z,1015.22
2017-07-02T04:56:37.423Z,1015.19
2017-07-02T04:57:02.973Z,1015.19
2017-07-02T04:57:28.528Z,1015.23
2017-07-02T04:57:54.077Z,1015.23
2017-07-02T04:58:19.625Z,1015.23
2017-07-02T04:58:45.209Z,1015.19
2017-07-02T04:59:10.766Z,1015.21
2017-07-02T04:59:36.334Z,1015.21
2017-07-02T05:00:01.888Z,1015.16
2017-07-02T05:00:27.451Z,1015.17
2017-07-02T05:00:52.993Z,1015.21
2017-07-02T05:01:18.557Z,1015.22
2017-07-02T05:01:44.110Z,1015.19
2017-07-02T05:02:09.679Z,1015.22
2017-07-02T05:02:35.250Z,1015.18
2017-07-02T05:03:00.859Z,1015.18
2017-07-02T05:03:26.428Z,1015.18
2017-07-02T05:03:51.973Z,1015.21
2017-07-02T05:04:17.540Z,1015.19
2017-07-02T05:04:43.100Z,1015.19
2017-07-02T05:05:08.659Z,1015.16
2017-07-02T05:05:34.285Z,1015.2
2017-07-02T05:05:59.931Z,1015.19
2017-07-02T05:06:25.499Z,1015.21
2017-07-02T05:06:51.047Z,1015.21
2017-07-02T05:07:16.622Z,1015.22
2017-07-02T05:07:42.200Z,1015.22
2017-07-02T05:08:07.756Z,1015.17
2017-07-02T05:08:33.337Z,1015.17
2017-07-02T05:08:58.910Z,1015.17
2017-07-02T05:09:24.488Z,1015.18
2017-07-02T05:09:50.124Z,1015.17
2017-07-02T05:10:15.698Z,1015.13
2017-07-02T05:10:41.246Z,1015.14
2017-07-02T05:11:06.788Z,1015.11
2017-07-02T05:11:32.343Z,1015.13
2017-07-02T05:11:57.909Z,1015.06
2017-07-02T05:12:23.505Z,1015.11
2017-07-02T05:12:49.056Z,1015.08
2017-07-02T05:13:14.614Z,1015.04
2017-07-02T05:13:40.195Z,1015.08
2017-07-02T05:14:05.772Z,1015.07